Terminal Aerodrome Forecast
Issued by NWS

Home | Current Version | Previous Version | Text Only | Print | Product List | Glossary On
Versions: 1 2 3 4 5 6 7 8 9 10 11 12
000
FTUS45 KRIW 202300
TAFCPR
TAF
KCPR 202327Z 2100/2124 22014G20KT P6SM SCT120 BKN200
     FM211000 23026G34KT P6SM BKN100
     FM211500 23030G37KT P6SM SCT040 BKN090=

USA.gov is the U.S. government's official web portal to all federal, state and local government web resources and services.